createdAt,value
2018-06-20T00:02:44.986Z,18.40
2018-06-20T00:07:39.682Z,18.20
2018-06-20T00:12:34.255Z,18.20
2018-06-20T00:17:28.814Z,18.10
2018-06-20T00:22:23.337Z,17.90
2018-06-20T00:27:17.879Z,17.80
2018-06-20T00:32:12.394Z,17.90
2018-06-20T00:37:06.940Z,17.90
2018-06-20T00:42:01.511Z,17.80
2018-06-20T00:46:56.245Z,17.70
2018-06-20T00:51:50.796Z,17.70
2018-06-20T00:56:45.340Z,17.80
2018-06-20T01:01:39.880Z,17.60
2018-06-20T01:06:34.395Z,17.60
2018-06-20T01:11:28.998Z,17.50
2018-06-20T01:21:25.370Z,17.40
2018-06-20T01:26:19.903Z,17.40
2018-06-20T01:31:14.543Z,17.30
2018-06-20T01:41:03.465Z,17.20
2018-06-20T01:45:57.989Z,17.30
2018-06-20T01:50:56.999Z,17.10
2018-06-20T01:55:51.814Z,17.10
2018-06-20T02:00:46.453Z,17.00
2018-06-20T02:05:40.978Z,17.20
2018-06-20T02:10:35.510Z,17.00
2018-06-20T02:15:30.089Z,17.00
2018-06-20T02:20:25.321Z,16.80
2018-06-20T02:25:19.877Z,16.80
2018-06-20T02:30:17.292Z,16.90
2018-06-20T02:35:11.867Z,16.90
2018-06-20T02:40:06.591Z,16.90
2018-06-20T02:45:01.131Z,16.90
2018-06-20T02:49:55.770Z,16.80
2018-06-20T02:54:50.367Z,16.80
2018-06-20T02:59:44.971Z,16.60
2018-06-20T03:04:39.655Z,16.70
2018-06-20T03:09:34.276Z,16.60
2018-06-20T03:14:29.018Z,16.50
2018-06-20T03:19:24.816Z,16.40
2018-06-20T03:24:19.335Z,16.40
2018-06-20T03:29:13.886Z,16.50
2018-06-20T03:34:08.412Z,16.60
2018-06-20T03:39:03.089Z,16.70
2018-06-20T03:43:57.685Z,16.50
2018-06-20T03:48:52.183Z,16.30
2018-06-20T03:53:46.710Z,16.30
2018-06-20T03:58:42.818Z,16.30
2018-06-20T04:03:37.382Z,16.20
2018-06-20T04:08:31.975Z,16.30
2018-06-20T04:13:26.577Z,16.40
2018-06-20T04:18:24.172Z,16.40
2018-06-20T04:23:18.710Z,16.50
2018-06-20T04:28:13.313Z,16.60
2018-06-20T04:33:07.941Z,16.80
2018-06-20T04:38:02.522Z,17.10
2018-06-20T04:42:58.966Z,17.30
2018-06-20T04:47:55.368Z,17.70
2018-06-20T04:52:49.889Z,18.20
2018-06-20T04:57:44.404Z,18.60
2018-06-20T05:02:39.149Z,19.10
2018-06-20T05:07:33.798Z,19.50
2018-06-20T05:12:28.363Z,19.90
2018-06-20T05:17:23.048Z,20.30
2018-06-20T05:22:17.614Z,20.70
2018-06-20T05:27:12.114Z,21.00
2018-06-20T05:32:06.725Z,21.30
2018-06-20T05:37:01.256Z,21.50
2018-06-20T05:41:55.903Z,21.70
2018-06-20T05:46:50.595Z,21.90
2018-06-20T05:56:39.496Z,22.00
2018-06-20T06:01:34.167Z,21.90
2018-06-20T06:06:29.874Z,21.80
2018-06-20T06:11:24.428Z,21.70
2018-06-20T06:16:19.011Z,21.50
2018-06-20T06:21:13.635Z,21.40
2018-06-20T06:26:08.243Z,21.30
2018-06-20T06:31:02.766Z,21.20
2018-06-20T06:35:57.340Z,21.30
2018-06-20T06:40:52.528Z,21.30
2018-06-20T06:45:47.119Z,21.30
2018-06-20T06:50:41.708Z,21.40
2018-06-20T06:55:36.258Z,21.60
2018-06-20T07:00:30.926Z,21.90
2018-06-20T07:05:25.537Z,22.10
2018-06-20T07:10:20.146Z,22.40
2018-06-20T07:15:14.795Z,22.60
2018-06-20T07:20:09.457Z,22.90
2018-06-20T07:25:04.326Z,23.30
2018-06-20T07:29:58.967Z,23.70
2018-06-20T07:34:53.766Z,23.50
2018-06-20T07:39:48.291Z,23.60
2018-06-20T07:44:42.890Z,23.90
2018-06-20T07:49:37.443Z,24.00
2018-06-20T07:54:31.991Z,24.40
2018-06-20T07:59:30.563Z,24.50
2018-06-20T08:04:30.233Z,24.70
2018-06-20T08:09:29.769Z,24.90
2018-06-20T08:14:29.393Z,25.10
2018-06-20T08:19:28.935Z,25.30
2018-06-20T08:24:23.480Z,25.80
2018-06-20T08:29:18.021Z,25.70
2018-06-20T08:34:12.778Z,25.90
2018-06-20T08:39:08.810Z,26.10
2018-06-20T08:44:03.598Z,26.30
2018-06-20T08:48:58.163Z,26.60
2018-06-20T08:53:52.745Z,26.80
2018-06-20T08:58:47.398Z,26.90
2018-06-20T09:03:42.738Z,26.90
2018-06-20T09:08:42.417Z,27.20
2018-06-20T09:13:45.794Z,27.10
2018-06-20T09:18:45.309Z,27.30
2018-06-20T09:23:39.933Z,27.40
2018-06-20T09:28:34.602Z,27.50
2018-06-20T09:33:29.208Z,27.40
2018-06-20T09:38:23.771Z,27.40
2018-06-20T09:43:18.372Z,27.60
2018-06-20T09:48:12.931Z,27.60
2018-06-20T09:53:07.821Z,28.00
2018-06-20T09:58:02.433Z,28.10
2018-06-20T10:03:02.043Z,28.10
2018-06-20T10:08:04.639Z,28.40
2018-06-20T10:13:04.319Z,28.70
2018-06-20T10:17:58.839Z,28.50
2018-06-20T10:22:53.509Z,28.70
2018-06-20T10:27:48.031Z,28.90
2018-06-20T10:32:42.599Z,28.80
2018-06-20T10:37:37.256Z,28.80
2018-06-20T10:42:31.894Z,28.80
2018-06-20T10:47:31.641Z,29.20
2018-06-20T10:52:26.295Z,29.50
2018-06-20T10:57:26.014Z,29.70
2018-06-20T11:02:25.739Z,29.60
2018-06-20T11:07:25.346Z,29.70
2018-06-20T11:12:24.957Z,30.10
2018-06-20T11:17:19.559Z,30.40
2018-06-20T11:22:14.287Z,30.20
2018-06-20T11:27:08.929Z,29.90
2018-06-20T11:32:03.514Z,29.70
2018-06-20T11:36:58.044Z,30.00
2018-06-20T11:41:52.598Z,30.10
2018-06-20T11:46:52.297Z,30.20
2018-06-20T11:51:46.896Z,30.00
2018-06-20T11:56:41.527Z,30.10
2018-06-20T12:01:41.258Z,30.30
2018-06-20T12:06:41.039Z,30.50
2018-06-20T12:11:40.958Z,30.60
2018-06-20T12:16:36.664Z,30.40
2018-06-20T12:21:36.344Z,30.40
2018-06-20T12:26:35.995Z,30.40
2018-06-20T12:31:35.793Z,30.50
2018-06-20T12:36:35.640Z,30.20
2018-06-20T12:41:36.964Z,30.20
2018-06-20T12:46:51.566Z,30.10
2018-06-20T12:51:46.095Z,30.00
2018-06-20T12:56:40.630Z,30.00
2018-06-20T13:01:35.210Z,29.80
2018-06-20T13:06:29.839Z,29.80
2018-06-20T13:11:24.397Z,29.60
2018-06-20T13:16:18.944Z,29.60
2018-06-20T13:21:13.506Z,29.60
2018-06-20T13:26:08.067Z,29.60
2018-06-20T13:31:07.695Z,29.70
2018-06-20T13:36:07.324Z,29.60
2018-06-20T13:41:07.022Z,29.60
2018-06-20T13:46:06.839Z,29.50
2018-06-20T13:51:01.443Z,29.30
2018-06-20T13:55:55.975Z,29.10
2018-06-20T14:00:50.539Z,29.20
2018-06-20T14:05:45.099Z,29.30
2018-06-20T14:10:39.829Z,29.10
2018-06-20T14:15:34.468Z,29.00
2018-06-20T14:20:34.232Z,29.00
2018-06-20T14:25:28.853Z,29.00
2018-06-20T14:30:28.492Z,29.00
2018-06-20T14:35:28.052Z,28.90
2018-06-20T14:40:27.543Z,28.90
2018-06-20T14:45:27.283Z,28.90
2018-06-20T14:50:21.880Z,28.80
2018-06-20T14:55:16.462Z,28.90
2018-06-20T15:00:11.044Z,28.90
2018-06-20T15:05:05.947Z,28.80
2018-06-20T15:10:00.482Z,28.70
2018-06-20T15:14:55.042Z,28.70
2018-06-20T15:19:49.629Z,28.90
2018-06-20T15:24:44.178Z,28.80
2018-06-20T15:29:43.873Z,28.80
2018-06-20T15:34:43.465Z,28.90
2018-06-20T15:39:38.083Z,28.90
2018-06-20T15:44:32.655Z,28.80
2018-06-20T15:49:27.323Z,28.80
2018-06-20T15:54:21.903Z,28.80
2018-06-20T15:59:16.461Z,28.70
2018-06-20T16:04:11.039Z,28.80
2018-06-20T16:09:12.974Z,28.80
2018-06-20T16:14:07.547Z,28.90
2018-06-20T16:19:07.366Z,28.70
2018-06-20T16:24:07.216Z,28.70
2018-06-20T16:29:07.102Z,28.70
2018-06-20T16:34:02.105Z,28.70
2018-06-20T16:38:57.464Z,28.60
2018-06-20T16:43:52.171Z,28.70
2018-06-20T16:53:41.002Z,28.60
2018-06-20T16:58:35.571Z,28.50
2018-06-20T17:03:30.166Z,28.40
2018-06-20T17:08:24.716Z,28.40
2018-06-20T17:13:24.400Z,28.30
2018-06-20T17:18:24.227Z,28.20
2018-06-20T17:23:23.860Z,28.30
2018-06-20T17:28:18.583Z,28.20
2018-06-20T17:33:13.152Z,28.10
2018-06-20T17:38:07.789Z,28.00
2018-06-20T17:43:02.365Z,28.00
2018-06-20T17:47:56.951Z,27.90
2018-06-20T17:52:51.547Z,27.80
2018-06-20T17:57:46.123Z,27.70
2018-06-20T18:02:40.699Z,27.50
2018-06-20T18:07:40.338Z,27.30
2018-06-20T18:12:40.124Z,27.10
2018-06-20T18:17:34.708Z,27.00
2018-06-20T18:22:30.324Z,26.80
2018-06-20T18:27:24.981Z,26.40
2018-06-20T18:32:19.575Z,26.20
2018-06-20T18:37:14.124Z,26.10
2018-06-20T18:42:08.738Z,26.00
2018-06-20T18:47:03.343Z,25.90
2018-06-20T18:51:57.927Z,25.90
2018-06-20T18:56:52.611Z,25.80
2018-06-20T19:01:52.452Z,25.60
2018-06-20T19:06:52.315Z,25.40
2018-06-20T19:11:47.291Z,25.20
2018-06-20T19:16:41.928Z,25.20
2018-06-20T19:21:37.487Z,25.00
2018-06-20T19:26:32.327Z,24.90
2018-06-20T19:36:21.090Z,24.70
2018-06-20T19:41:15.691Z,24.50
2018-06-20T19:46:10.299Z,24.40
2018-06-20T19:51:05.202Z,24.20
2018-06-20T19:55:59.804Z,24.10
2018-06-20T20:00:54.414Z,24.10
2018-06-20T20:05:49.026Z,24.00
2018-06-20T20:10:43.648Z,23.90
2018-06-20T20:15:38.249Z,23.70
2018-06-20T20:20:32.847Z,23.60
2018-06-20T20:25:27.454Z,23.50
2018-06-20T20:30:22.092Z,23.30
2018-06-20T20:35:16.719Z,23.20
2018-06-20T20:40:11.306Z,23.10
2018-06-20T20:45:06.060Z,23.00
2018-06-20T20:50:00.718Z,22.90
2018-06-20T20:54:55.292Z,22.80
2018-06-20T20:59:49.819Z,22.70
2018-06-20T21:04:44.451Z,22.70
2018-06-20T21:09:39.077Z,22.60
2018-06-20T21:14:33.699Z,22.70
2018-06-20T21:19:28.247Z,22.60
2018-06-20T21:29:17.046Z,22.40
2018-06-20T21:34:11.655Z,22.30
2018-06-20T21:39:09.855Z,22.20
2018-06-20T21:44:04.442Z,22.10
2018-06-20T21:48:58.998Z,22.10
2018-06-20T21:53:53.619Z,22.00
2018-06-20T21:58:48.189Z,22.00
2018-06-20T22:13:31.293Z,21.70
2018-06-20T22:18:25.887Z,21.70
2018-06-20T22:23:20.387Z,21.60
2018-06-20T22:28:14.963Z,21.50
2018-06-20T22:33:09.479Z,21.40
2018-06-20T22:38:04.059Z,21.40
2018-06-20T22:42:58.629Z,21.40
2018-06-20T22:47:53.339Z,21.20
2018-06-20T22:57:42.136Z,21.00
2018-06-20T23:02:36.731Z,20.90
2018-06-20T23:07:31.376Z,21.00
2018-06-20T23:12:25.910Z,21.00
2018-06-20T23:17:20.479Z,20.90
2018-06-20T23:22:15.029Z,20.80
2018-06-20T23:27:09.643Z,20.70
2018-06-20T23:32:04.203Z,20.60
2018-06-20T23:36:58.760Z,20.60
2018-06-20T23:41:53.311Z,20.50
2018-06-20T23:46:47.899Z,20.40
2018-06-20T23:51:42.511Z,20.20
2018-06-20T23:56:37.050Z,20.30
